Time;durP1;ratioP1;P1;durP2;ratioP2;P2;SDS_P1;SDS_P2;PMS_P1;PMS_P2;Temp;Humidity;BMP_temperature;BMP_pressure;BME280_temperature;BME280_humidity;BME280_pressure;Samples;Min_cycle;Max_cycle;Signal;HPM_P1;HPM_P2
2023/06/10 00:00:56;;;;;;;14.80;7.07;;;;;20.60;100765.00;;;;10165339;28;20280;-74
2023/06/10 00:05:58;;;;;;;7.75;6.95;;;;;20.50;100765.00;;;;10178369;28;20212;-78
2023/06/10 00:11:00;;;;;;;10.20;7.32;;;;;20.50;100755.00;;;;10168113;28;20637;-76
2023/06/10 00:16:03;;;;;;;9.82;6.65;;;;;20.40;100770.00;;;;10165498;28;20431;-77
2023/06/10 00:21:05;;;;;;;7.53;6.78;;;;;20.30;100764.00;;;;10158572;28;20232;-76
2023/06/10 00:26:08;;;;;;;9.88;7.18;;;;;20.20;100765.00;;;;10161166;28;20475;-76
2023/06/10 00:31:10;;;;;;;8.98;7.38;;;;;20.10;100759.00;;;;10163294;28;20216;-75
2023/06/10 00:36:13;;;;;;;9.07;7.05;;;;;20.10;100758.00;;;;10166374;28;20208;-74
2023/06/10 00:41:15;;;;;;;11.00;7.28;;;;;20.00;100759.00;;;;10159455;28;20304;-75
2023/06/10 00:46:20;;;;;;;13.52;7.63;;;;;20.00;100765.00;;;;10161001;28;20692;-75
2023/06/10 00:51:22;;;;;;;7.88;7.07;;;;;19.90;100766.00;;;;10172577;28;20228;-77
2023/06/10 00:56:25;;;;;;;9.13;7.55;;;;;19.80;100762.00;;;;10179039;28;20510;-77
2023/06/10 01:01:29;;;;;;;9.38;7.10;;;;;19.80;100771.00;;;;10174493;28;20233;-78
2023/06/10 01:07:09;;;;;;;7.78;6.63;;;;;19.70;100754.00;;;;10178819;28;20585;-75
2023/06/10 01:12:26;;;;;;;11.75;8.00;;;;;19.60;100760.00;;;;10176774;28;21034;-75
2023/06/10 01:17:29;;;;;;;9.60;8.30;;;;;19.40;100761.00;;;;10160437;28;20216;-76
2023/06/10 01:22:32;;;;;;;8.55;7.75;;;;;19.30;100763.00;;;;10158113;28;20254;-75
2023/06/10 01:27:42;;;;;;;12.85;7.65;;;;;19.20;100765.00;;;;10161219;28;20580;-75
2023/06/10 01:32:47;;;;;;;9.65;8.27;;;;;19.00;100765.00;;;;10160616;28;20241;-74
2023/06/10 01:37:52;;;;;;;8.52;7.72;;;;;18.90;100764.00;;;;10183142;28;20744;-76
2023/06/10 01:42:55;;;;;;;10.43;8.48;;;;;18.90;100768.00;;;;10159526;28;20267;-75
2023/06/10 01:47:58;;;;;;;8.82;7.95;;;;;18.80;100766.00;;;;10187039;28;21837;-76
2023/06/10 01:53:01;;;;;;;8.93;8.13;;;;;18.70;100772.00;;;;10158543;28;21200;-75
2023/06/10 01:58:03;;;;;;;9.15;8.25;;;;;18.60;100763.00;;;;10157881;28;20217;-75
2023/06/10 02:03:05;;;;;;;12.55;9.18;;;;;18.60;100769.00;;;;10166842;28;20652;-73
2023/06/10 02:08:08;;;;;;;9.20;8.07;;;;;18.50;100773.00;;;;10138751;28;20235;-76
2023/06/10 02:13:09;;;;;;;9.05;8.18;;;;;18.50;100771.00;;;;10137714;28;20294;-74
2023/06/10 02:18:12;;;;;;;11.18;9.00;;;;;18.40;100773.00;;;;10159317;28;20217;-74
2023/06/10 02:23:14;;;;;;;10.52;7.97;;;;;18.40;100772.00;;;;10158314;28;20695;-75
2023/06/10 02:28:16;;;;;;;9.63;8.23;;;;;18.40;100775.00;;;;10182050;28;20208;-77
2023/06/10 02:33:19;;;;;;;13.30;8.98;;;;;18.30;100774.00;;;;10157844;28;20213;-78
2023/06/10 02:38:22;;;;;;;10.35;8.50;;;;;18.20;100782.00;;;;10169808;28;22301;-78
2023/06/10 02:43:24;;;;;;;9.63;8.70;;;;;18.20;100781.00;;;;10174809;28;20202;-74
2023/06/10 02:48:28;;;;;;;9.57;8.70;;;;;18.00;100784.00;;;;10166509;28;20579;-76
2023/06/10 02:53:31;;;;;;;10.52;9.30;;;;;18.00;100781.00;;;;10165596;28;20209;-73
2023/06/10 02:58:39;;;;;;;10.20;9.20;;;;;18.00;100796.00;;;;10180799;28;20872;-75
2023/06/10 03:03:43;;;;;;;11.45;9.10;;;;;18.00;100797.00;;;;10166474;28;20821;-75
2023/06/10 03:08:48;;;;;;;13.80;9.65;;;;;18.00;100797.00;;;;10168190;28;20220;-75
2023/06/10 03:13:53;;;;;;;13.40;9.45;;;;;17.90;100794.00;;;;10158598;28;21384;-75
2023/06/10 03:18:57;;;;;;;11.13;9.70;;;;;17.90;100801.00;;;;10164937;28;20239;-78
2023/06/10 03:23:59;;;;;;;11.23;10.03;;;;;17.80;100805.00;;;;10175103;28;20322;-77
2023/06/10 03:29:01;;;;;;;11.18;9.85;;;;;17.80;100809.00;;;;10177748;28;20209;-74
2023/06/10 03:34:04;;;;;;;11.70;10.02;;;;;17.70;100801.00;;;;10175738;28;20237;-73
2023/06/10 03:39:06;;;;;;;11.35;9.95;;;;;17.70;100800.00;;;;10171669;28;20364;-74
2023/06/10 03:44:09;;;;;;;13.55;10.77;;;;;17.70;100803.00;;;;10167388;28;20299;-76
2023/06/10 03:49:11;;;;;;;12.98;10.25;;;;;17.70;100809.00;;;;10158044;28;20209;-76
2023/06/10 03:54:13;;;;;;;11.32;10.23;;;;;17.80;100806.00;;;;10135449;28;20743;-75
2023/06/10 03:59:16;;;;;;;11.20;10.10;;;;;17.90;100813.00;;;;10162593;28;20228;-77
2023/06/10 04:04:18;;;;;;;12.23;10.40;;;;;18.10;100810.00;;;;10170224;28;20303;-75
2023/06/10 04:09:21;;;;;;;13.50;10.55;;;;;18.30;100826.00;;;;10166358;28;20297;-78
2023/06/10 04:14:24;;;;;;;15.65;9.98;;;;;18.30;100819.00;;;;10164993;28;20217;-78
2023/06/10 04:19:26;;;;;;;11.63;10.43;;;;;18.40;100822.00;;;;10178803;28;20524;-77
2023/06/10 04:24:28;;;;;;;15.65;11.07;;;;;18.50;100834.00;;;;10150147;28;20263;-75
2023/06/10 04:29:31;;;;;;;18.02;11.13;;;;;18.60;100839.00;;;;10164452;28;20292;-77
2023/06/10 04:34:34;;;;;;;13.68;11.02;;;;;18.70;100836.00;;;;10166036;28;20287;-77
2023/06/10 04:39:37;;;;;;;12.68;11.57;;;;;18.80;100838.00;;;;10167318;28;20253;-78
2023/06/10 04:44:42;;;;;;;13.32;11.48;;;;;18.90;100845.00;;;;10166716;28;20228;-77
2023/06/10 04:49:45;;;;;;;12.57;10.90;;;;;19.00;100851.00;;;;10177621;28;20800;-78
2023/06/10 04:54:48;;;;;;;13.70;10.90;;;;;19.10;100838.00;;;;10180621;28;20266;-78
2023/06/10 04:59:50;;;;;;;11.75;10.68;;;;;19.40;100850.00;;;;10178520;28;20386;-76
2023/06/10 05:04:54;;;;;;;14.32;11.27;;;;;19.70;100853.00;;;;10173741;28;20295;-76
2023/06/10 05:09:56;;;;;;;11.88;10.73;;;;;20.00;100846.00;;;;10174685;28;21881;-74
2023/06/10 05:14:58;;;;;;;11.48;10.38;;;;;20.30;100848.00;;;;10178117;28;20225;-74
2023/06/10 05:20:02;;;;;;;13.20;11.90;;;;;20.70;100853.00;;;;10163341;28;20225;-74
2023/06/10 05:25:04;;;;;;;12.35;11.13;;;;;21.10;100860.00;;;;10172213;28;20662;-73
2023/06/10 05:30:08;;;;;;;12.77;11.48;;;;;21.40;100851.00;;;;10170874;28;20213;-75
2023/06/10 05:35:10;;;;;;;12.18;11.02;;;;;21.80;100849.00;;;;10171332;28;20214;-77
2023/06/10 05:40:12;;;;;;;13.85;11.43;;;;;22.20;100847.00;;;;10169032;28;20228;-76
2023/06/10 05:45:15;;;;;;;13.48;10.73;;;;;22.60;100847.00;;;;10157235;28;20572;-76
2023/06/10 05:50:18;;;;;;;13.20;10.10;;;;;22.90;100856.00;;;;10164262;28;20634;-77
2023/06/10 05:55:20;;;;;;;11.20;9.52;;;;;23.20;100864.00;;;;10161008;28;20362;-78
2023/06/10 06:00:22;;;;;;;11.75;10.65;;;;;23.50;100858.00;;;;10172532;28;20217;-77
2023/06/10 06:05:25;;;;;;;13.07;10.30;;;;;23.90;100867.00;;;;10178847;28;20217;-78
2023/06/10 06:10:27;;;;;;;11.05;9.95;;;;;24.30;100877.00;;;;10163195;28;20940;-76
2023/06/10 06:15:29;;;;;;;11.90;10.43;;;;;24.60;100873.00;;;;10160773;28;20300;-76
2023/06/10 06:20:31;;;;;;;10.38;9.38;;;;;24.80;100876.00;;;;10161448;28;20339;-79
2023/06/10 06:25:33;;;;;;;11.23;8.77;;;;;24.90;100876.00;;;;10156890;28;20209;-75
2023/06/10 06:30:35;;;;;;;10.93;9.93;;;;;25.20;100873.00;;;;10169901;28;20217;-76
2023/06/10 06:35:38;;;;;;;10.85;8.90;;;;;25.60;100886.00;;;;10176075;28;20213;-75
2023/06/10 06:40:40;;;;;;;10.20;9.15;;;;;26.10;100890.00;;;;10170454;28;20311;-76
2023/06/10 06:45:42;;;;;;;11.65;8.77;;;;;26.40;100890.00;;;;10172245;28;20212;-74
2023/06/10 06:50:44;;;;;;;9.52;8.52;;;;;26.60;100892.00;;;;10167394;28;20224;-75
2023/06/10 06:55:46;;;;;;;12.77;8.52;;;;;26.80;100889.00;;;;10159853;28;20213;-76
2023/06/10 07:00:48;;;;;;;9.77;8.77;;;;;27.30;100896.00;;;;10176952;28;20870;-76
2023/06/10 07:05:50;;;;;;;8.73;7.70;;;;;27.50;100890.00;;;;10186933;28;20275;-75
2023/06/10 07:10:53;;;;;;;10.20;8.80;;;;;27.80;100891.00;;;;10183747;28;20217;-77
2023/06/10 07:15:55;;;;;;;9.35;8.32;;;;;28.10;100894.00;;;;10177458;28;20210;-77
2023/06/10 07:20:57;;;;;;;9.52;8.63;;;;;28.70;100892.00;;;;10191731;28;21851;-76
2023/06/10 07:25:59;;;;;;;8.77;7.88;;;;;29.20;100897.00;;;;10187868;28;20209;-75
2023/06/10 07:31:01;;;;;;;9.60;8.68;;;;;29.60;100901.00;;;;10167754;28;20205;-75
2023/06/10 07:36:04;;;;;;;9.00;7.95;;;;;29.90;100899.00;;;;10170348;28;21482;-77
2023/06/10 07:41:06;;;;;;;9.23;7.38;;;;;30.00;100899.00;;;;10180560;28;20226;-77
2023/06/10 07:46:08;;;;;;;8.07;7.13;;;;;30.40;100906.00;;;;10179718;28;21330;-76
2023/06/10 07:51:10;;;;;;;9.80;7.30;;;;;30.70;100910.00;;;;10180331;28;20236;-75
2023/06/10 07:56:12;;;;;;;9.85;7.30;;;;;31.30;100904.00;;;;10177212;28;20201;-77
2023/06/10 08:01:14;;;;;;;10.38;6.80;;;;;31.60;100915.00;;;;10178543;28;20228;-76
2023/06/10 08:06:17;;;;;;;10.02;6.90;;;;;31.70;100909.00;;;;10202631;28;20204;-80
2023/06/10 08:11:19;;;;;;;6.60;6.00;;;;;31.80;100909.00;;;;10197399;28;22096;-79
2023/06/10 08:16:21;;;;;;;7.13;6.45;;;;;32.30;100910.00;;;;10188868;28;20216;-76
2023/06/10 08:21:24;;;;;;;8.30;6.72;;;;;32.70;100909.00;;;;10184969;28;20275;-76
2023/06/10 08:26:26;;;;;;;8.85;6.75;;;;;32.80;100912.00;;;;10186536;28;20288;-75
2023/06/10 08:31:28;;;;;;;7.85;6.20;;;;;33.10;100911.00;;;;10198394;28;20212;-74
2023/06/10 08:36:33;;;;;;;6.20;5.60;;;;;33.60;100911.00;;;;10198733;28;20846;-75
2023/06/10 08:41:40;;;;;;;7.22;5.95;;;;;33.90;100907.00;;;;10193377;28;20871;-76
2023/06/10 08:46:45;;;;;;;6.53;5.53;;;;;34.10;100905.00;;;;10180390;28;20209;-76
2023/06/10 08:51:50;;;;;;;5.85;5.35;;;;;34.30;100906.00;;;;10188469;28;20210;-74
2023/06/10 08:56:58;;;;;;;6.13;5.63;;;;;34.70;100913.00;;;;10187200;28;20224;-76
2023/06/10 09:02:02;;;;;;;6.22;5.63;;;;;34.90;100900.00;;;;10194365;28;20236;-76
2023/06/10 09:07:06;;;;;;;5.47;4.97;;;;;35.00;100904.00;;;;10192727;28;20217;-76
2023/06/10 09:12:08;;;;;;;5.13;4.47;;;;;35.40;100904.00;;;;10178034;28;22135;-74
2023/06/10 09:17:10;;;;;;;4.80;4.43;;;;;35.80;100897.00;;;;10183617;28;20205;-75
2023/06/10 09:22:12;;;;;;;7.20;4.40;;;;;35.80;100897.00;;;;10185734;28;20221;-75
2023/06/10 09:27:15;;;;;;;10.02;4.90;;;;;36.00;100899.00;;;;10194264;28;20204;-76
2023/06/10 09:32:19;;;;;;;5.47;4.47;;;;;36.50;100900.00;;;;10190496;28;20209;-75
2023/06/10 09:37:22;;;;;;;5.00;4.50;;;;;36.50;100890.00;;;;10184266;28;20209;-75
2023/06/10 09:42:25;;;;;;;4.93;4.53;;;;;36.40;100898.00;;;;10186563;28;20810;-76
2023/06/10 09:47:27;;;;;;;5.65;5.07;;;;;36.20;100888.00;;;;10174659;28;20271;-77
2023/06/10 09:52:29;;;;;;;6.38;4.68;;;;;36.60;100889.00;;;;10187534;28;20271;-75
2023/06/10 09:57:35;;;;;;;5.35;4.85;;;;;37.30;100893.00;;;;10191450;28;20232;-74
2023/06/10 10:02:49;;;;;;;6.03;4.97;;;;;37.60;100896.00;;;;10183168;28;20209;-81
2023/06/10 10:07:52;;;;;;;6.45;5.13;;;;;37.40;100895.00;;;;10184540;28;20976;-76
2023/06/10 10:12:58;;;;;;;5.93;5.32;;;;;37.10;100900.00;;;;10183050;28;20254;-74
2023/06/10 10:18:14;;;;;;;7.55;5.63;;;;;37.10;100889.00;;;;10173250;28;20219;-77
2023/06/10 10:23:34;;;;;;;6.22;5.28;;;;;37.30;100890.00;;;;10185201;28;20259;-75
2023/06/10 10:28:53;;;;;;;6.43;5.30;;;;;37.20;100888.00;;;;10181849;28;20223;-75
2023/06/10 10:33:58;;;;;;;7.10;5.18;;;;;37.10;100889.00;;;;10188989;28;20655;-76
2023/06/10 10:39:03;;;;;;;5.35;4.70;;;;;37.20;100883.00;;;;10187461;28;20209;-77
2023/06/10 10:44:10;;;;;;;5.55;4.95;;;;;37.50;100877.00;;;;10189444;28;21973;-74
2023/06/10 10:49:15;;;;;;;8.75;5.28;;;;;37.90;100875.00;;;;10187433;28;20231;-76
2023/06/10 10:54:17;;;;;;;6.47;5.13;;;;;38.30;100871.00;;;;10177109;28;20651;-77
2023/06/10 10:59:19;;;;;;;5.65;5.13;;;;;38.30;100884.00;;;;10160527;28;20328;-77
2023/06/10 11:04:22;;;;;;;6.32;5.50;;;;;37.90;100871.00;;;;10180441;28;20237;-82
2023/06/10 11:09:28;;;;;;;4.90;4.30;;;;;37.80;100861.00;;;;10180957;28;20235;-75
2023/06/10 11:14:32;;;;;;;5.18;4.53;;;;;38.00;100865.00;;;;10174236;28;20447;-78
2023/06/10 11:19:37;;;;;;;5.40;4.53;;;;;37.90;100853.00;;;;10172374;28;20213;-78
2023/06/10 11:24:39;;;;;;;5.65;4.32;;;;;38.00;100863.00;;;;10168829;28;21570;-78
2023/06/10 11:29:55;;;;;;;5.95;5.32;;;;;38.30;100852.00;;;;10169514;28;20216;-78
2023/06/10 11:34:58;;;;;;;5.70;5.20;;;;;38.10;100849.00;;;;10171543;28;20239;-77
2023/06/10 11:40:00;;;;;;;7.22;4.82;;;;;38.10;100848.00;;;;10180181;28;21529;-79
2023/06/10 11:45:02;;;;;;;5.72;5.13;;;;;38.70;100844.00;;;;10185860;28;20284;-78
2023/06/10 11:50:07;;;;;;;5.45;4.88;;;;;38.20;100862.00;;;;10186260;28;20217;-79
2023/06/10 11:55:10;;;;;;;5.82;5.07;;;;;37.30;100845.00;;;;10155369;28;20253;-75
2023/06/10 12:00:13;;;;;;;7.20;5.10;;;;;38.60;100827.00;;;;10173510;28;21863;-75
2023/06/10 12:05:19;;;;;;;6.30;5.25;;;;;39.00;100834.00;;;;10185583;28;20244;-79
2023/06/10 12:10:21;;;;;;;7.80;5.40;;;;;39.30;100833.00;;;;10175114;28;20300;-79
2023/06/10 12:15:28;;;;;;;5.90;5.03;;;;;39.60;100830.00;;;;10179719;28;20266;-79
2023/06/10 12:20:33;;;;;;;6.53;4.93;;;;;39.10;100825.00;;;;10178749;28;21255;-82
2023/06/10 12:25:38;;;;;;;7.07;5.30;;;;;39.10;100811.00;;;;10183841;28;21289;-76
2023/06/10 12:30:41;;;;;;;8.75;4.78;;;;;40.00;100823.00;;;;10177397;28;22404;-79
2023/06/10 12:35:49;;;;;;;5.25;4.30;;;;;39.20;100820.00;;;;10183086;28;20249;-78
2023/06/10 12:40:51;;;;;;;5.10;4.60;;;;;38.80;100814.00;;;;10179488;28;20204;-77
2023/06/10 12:45:54;;;;;;;5.32;4.82;;;;;39.30;100811.00;;;;10162500;28;20275;-77
2023/06/10 12:50:57;;;;;;;5.65;4.80;;;;;39.40;100818.00;;;;10173156;28;20346;-77
2023/06/10 12:56:02;;;;;;;6.75;4.70;;;;;38.40;100817.00;;;;10170255;28;20957;-77
2023/06/10 13:01:04;;;;;;;6.78;4.10;;;;;37.80;100810.00;;;;10176643;28;20347;-77
2023/06/10 13:06:06;;;;;;;5.00;4.50;;;;;38.70;100805.00;;;;10183092;28;20243;-78
2023/06/10 13:11:08;;;;;;;5.53;4.53;;;;;39.10;100807.00;;;;10186359;28;20237;-78
2023/06/10 13:16:10;;;;;;;6.40;4.65;;;;;38.10;100799.00;;;;10183983;28;20670;-79
2023/06/10 13:21:13;;;;;;;5.03;4.30;;;;;38.10;100795.00;;;;10183253;28;20423;-80
2023/06/10 13:26:18;;;;;;;7.75;4.53;;;;;38.10;100787.00;;;;10183035;28;20209;-79
2023/06/10 13:31:20;;;;;;;5.53;5.00;;;;;37.30;100795.00;;;;10158962;28;20270;-76
2023/06/10 13:36:23;;;;;;;8.35;4.72;;;;;37.70;100790.00;;;;10190324;28;20312;-75
2023/06/10 13:41:28;;;;;;;5.50;4.60;;;;;37.60;100789.00;;;;10170135;28;20809;-76
2023/06/10 13:46:30;;;;;;;7.80;4.78;;;;;37.90;100780.00;;;;10164671;28;20675;-74
2023/06/10 13:51:32;;;;;;;6.65;4.60;;;;;37.80;100774.00;;;;10163497;28;20225;-75
2023/06/10 13:56:37;;;;;;;6.55;4.80;;;;;37.60;100779.00;;;;10163347;28;22036;-76
2023/06/10 14:01:40;;;;;;;6.25;4.55;;;;;37.60;100780.00;;;;10164575;28;20266;-76
2023/06/10 14:06:42;;;;;;;5.45;4.95;;;;;37.60;100782.00;;;;10166575;28;20881;-76
2023/06/10 14:11:45;;;;;;;6.75;4.95;;;;;37.20;100770.00;;;;10170331;28;20228;-77
2023/06/10 14:16:47;;;;;;;7.45;5.22;;;;;37.30;100772.00;;;;10176065;28;20356;-80
2023/06/10 14:21:49;;;;;;;5.72;5.13;;;;;37.00;100770.00;;;;10158940;28;20213;-75
2023/06/10 14:26:51;;;;;;;7.13;4.80;;;;;36.90;100767.00;;;;10166581;28;20950;-75
2023/06/10 14:31:53;;;;;;;5.55;4.45;;;;;37.30;100765.00;;;;10168473;28;20236;-77
2023/06/10 14:36:55;;;;;;;6.13;4.72;;;;;37.40;100765.00;;;;10163929;28;20209;-78
2023/06/10 14:41:57;;;;;;;5.10;4.70;;;;;37.40;100761.00;;;;10177055;28;20381;-77
2023/06/10 14:46:59;;;;;;;6.72;5.03;;;;;37.80;100768.00;;;;10182360;28;20339;-77
2023/06/10 14:52:02;;;;;;;6.05;4.68;;;;;37.90;100760.00;;;;10179157;28;20224;-77
2023/06/10 14:57:05;;;;;;;5.55;4.95;;;;;38.70;100753.00;;;;10173237;28;20228;-75
2023/06/10 15:02:07;;;;;;;7.13;4.60;;;;;40.10;100746.00;;;;10170697;28;20237;-76
2023/06/10 15:07:09;;;;;;;5.30;4.80;;;;;40.80;100749.00;;;;10173909;28;20212;-75
2023/06/10 15:12:11;;;;;;;5.88;4.88;;;;;40.90;100748.00;;;;10171828;28;20269;-78
2023/06/10 15:17:14;;;;;;;6.60;4.57;;;;;41.40;100744.00;;;;10164826;28;20232;-77
2023/06/10 15:22:16;;;;;;;5.93;4.78;;;;;41.90;100747.00;;;;10164234;28;20220;-75
2023/06/10 15:27:18;;;;;;;5.43;4.93;;;;;42.50;100749.00;;;;10168533;28;20220;-76
2023/06/10 15:32:20;;;;;;;6.03;5.43;;;;;42.20;100742.00;;;;10164294;28;20682;-77
2023/06/10 15:37:22;;;;;;;6.15;5.30;;;;;38.80;100750.00;;;;10155141;28;20205;-76
2023/06/10 15:42:24;;;;;;;6.30;5.10;;;;;37.50;100748.00;;;;10155613;28;20216;-76
2023/06/10 15:47:26;;;;;;;5.40;4.90;;;;;37.10;100745.00;;;;10154586;28;21305;-75
2023/06/10 15:52:28;;;;;;;5.63;4.22;;;;;35.30;100742.00;;;;10177989;28;20228;-75
2023/06/10 15:57:30;;;;;;;6.85;5.30;;;;;34.40;100742.00;;;;10163348;28;20213;-75
2023/06/10 16:02:32;;;;;;;6.30;4.68;;;;;34.00;100733.00;;;;10181981;28;20564;-76
2023/06/10 16:07:40;;;;;;;5.45;4.75;;;;;33.60;100734.00;;;;10181483;28;22034;-76
2023/06/10 16:12:42;;;;;;;8.05;5.47;;;;;33.50;100725.00;;;;10176102;28;20229;-75
2023/06/10 16:17:44;;;;;;;8.30;5.40;;;;;33.30;100730.00;;;;10180364;28;20248;-75
2023/06/10 16:22:46;;;;;;;5.57;5.00;;;;;33.00;100723.00;;;;10177115;28;20793;-75
2023/06/10 16:27:48;;;;;;;6.85;5.57;;;;;32.80;100718.00;;;;10157808;28;20213;-75
2023/06/10 16:32:50;;;;;;;5.75;4.97;;;;;32.60;100714.00;;;;10167178;28;20237;-76
2023/06/10 16:37:52;;;;;;;5.40;4.88;;;;;32.40;100713.00;;;;10176675;28;20209;-75
2023/06/10 16:42:54;;;;;;;6.60;5.15;;;;;32.20;100712.00;;;;10170176;28;20213;-75
2023/06/10 16:47:56;;;;;;;8.18;4.93;;;;;32.20;100710.00;;;;10170812;28;20328;-75
2023/06/10 16:52:58;;;;;;;4.97;4.50;;;;;32.20;100704.00;;;;10177465;28;20319;-78
2023/06/10 16:58:00;;;;;;;7.05;4.63;;;;;32.00;100711.00;;;;10178111;28;20213;-75
2023/06/10 17:03:02;;;;;;;5.68;5.00;;;;;31.90;100711.00;;;;10183366;28;20322;-77
2023/06/10 17:08:04;;;;;;;7.13;4.88;;;;;31.80;100718.00;;;;10161885;28;20936;-76
2023/06/10 17:13:07;;;;;;;6.10;4.82;;;;;31.60;100718.00;;;;10158871;28;20225;-76
2023/06/10 17:18:09;;;;;;;12.98;5.10;;;;;31.40;100717.00;;;;10164040;28;20223;-76
2023/06/10 17:23:11;;;;;;;5.20;4.70;;;;;31.30;100720.00;;;;10156804;28;20228;-76
2023/06/10 17:28:13;;;;;;;5.53;4.88;;;;;31.20;100718.00;;;;10155892;28;21091;-76
2023/06/10 17:33:15;;;;;;;6.85;5.60;;;;;31.10;100715.00;;;;10163455;28;20256;-76
2023/06/10 17:38:19;;;;;;;9.23;5.00;;;;;31.00;100719.00;;;;10163533;28;20260;-74
2023/06/10 17:43:23;;;;;;;9.52;4.97;;;;;30.90;100718.00;;;;10162361;28;20294;-73
2023/06/10 17:48:25;;;;;;;6.13;5.03;;;;;30.80;100724.00;;;;10161356;28;20201;-75
2023/06/10 17:53:27;;;;;;;6.65;5.38;;;;;30.70;100727.00;;;;10157300;28;20308;-78
2023/06/10 17:58:29;;;;;;;6.57;5.15;;;;;30.60;100724.00;;;;10153858;28;20808;-79
2023/06/10 18:03:31;;;;;;;6.32;5.22;;;;;30.50;100732.00;;;;10175380;28;20212;-76
2023/06/10 18:08:34;;;;;;;5.72;5.15;;;;;30.30;100741.00;;;;10177272;28;20217;-75
2023/06/10 18:13:37;;;;;;;7.20;5.53;;;;;30.10;100746.00;;;;10178241;28;20237;-75
2023/06/10 18:18:39;;;;;;;5.85;5.35;;;;;30.00;100743.00;;;;10175301;28;20213;-78
2023/06/10 18:23:42;;;;;;;6.25;5.65;;;;;29.80;100745.00;;;;10152065;28;20797;-77
2023/06/10 18:28:44;;;;;;;7.07;6.40;;;;;29.60;100745.00;;;;10156024;28;20205;-76
2023/06/10 18:33:46;;;;;;;6.40;5.80;;;;;29.40;100751.00;;;;10159217;28;20506;-75
2023/06/10 18:38:48;;;;;;;8.38;6.50;;;;;29.20;100755.00;;;;10159267;28;20217;-75
2023/06/10 18:43:50;;;;;;;7.38;5.57;;;;;29.00;100758.00;;;;10154214;28;20234;-76
2023/06/10 18:48:52;;;;;;;7.65;6.00;;;;;28.80;100757.00;;;;10157021;28;20205;-75
2023/06/10 18:53:54;;;;;;;7.22;6.25;;;;;28.60;100762.00;;;;10158197;28;21312;-75
2023/06/10 18:58:57;;;;;;;7.00;6.30;;;;;28.40;100764.00;;;;10158368;28;20920;-73
2023/06/10 19:03:59;;;;;;;8.80;6.90;;;;;28.20;100770.00;;;;10154026;28;20248;-74
2023/06/10 19:09:03;;;;;;;9.02;6.45;;;;;28.00;100775.00;;;;10156078;28;20595;-75
2023/06/10 19:14:06;;;;;;;6.80;6.20;;;;;27.80;100776.00;;;;10152483;28;20952;-76
2023/06/10 19:19:08;;;;;;;10.70;6.93;;;;;27.70;100791.00;;;;10156886;28;20465;-75
2023/06/10 19:24:10;;;;;;;6.65;6.07;;;;;27.40;100786.00;;;;10164368;28;20221;-75
2023/06/10 19:29:13;;;;;;;7.38;6.07;;;;;27.20;100788.00;;;;10170153;28;20239;-76
2023/06/10 19:34:15;;;;;;;6.97;6.25;;;;;27.00;100802.00;;;;10172366;28;20217;-76
2023/06/10 19:39:17;;;;;;;7.50;6.38;;;;;26.70;100799.00;;;;10177130;28;20211;-76
2023/06/10 19:44:19;;;;;;;10.05;6.55;;;;;26.50;100808.00;;;;10179831;28;20304;-76
2023/06/10 19:49:21;;;;;;;10.50;7.18;;;;;26.30;100810.00;;;;10194271;28;21038;-76
2023/06/10 19:54:23;;;;;;;9.40;7.03;;;;;26.00;100800.00;;;;10172955;28;20233;-78
2023/06/10 19:59:25;;;;;;;8.80;7.13;;;;;25.80;100810.00;;;;10199622;28;20212;-74
2023/06/10 20:04:27;;;;;;;7.30;6.60;;;;;25.60;100818.00;;;;10204362;28;20209;-75
2023/06/10 20:09:30;;;;;;;11.20;6.65;;;;;25.50;100822.00;;;;10204592;28;20216;-75
2023/06/10 20:14:32;;;;;;;10.27;6.32;;;;;25.30;100829.00;;;;10198485;28;20225;-77
2023/06/10 20:19:35;;;;;;;9.77;7.07;;;;;25.10;100825.00;;;;10197631;28;20217;-74
2023/06/10 20:24:37;;;;;;;8.30;6.75;;;;;25.00;100828.00;;;;10183175;28;20252;-73
2023/06/10 20:29:39;;;;;;;9.20;7.80;;;;;24.80;100829.00;;;;10185310;28;20328;-73
2023/06/10 20:34:42;;;;;;;10.23;7.32;;;;;24.60;100843.00;;;;10181443;28;20263;-75
2023/06/10 20:39:44;;;;;;;8.25;7.18;;;;;24.50;100843.00;;;;10177166;28;20346;-75
2023/06/10 20:44:46;;;;;;;8.13;7.13;;;;;24.30;100845.00;;;;10166213;28;20685;-79
2023/06/10 20:49:48;;;;;;;8.10;7.30;;;;;24.20;100847.00;;;;10150067;28;20240;-74
2023/06/10 20:54:50;;;;;;;11.63;7.30;;;;;24.00;100848.00;;;;10175377;28;20599;-76
2023/06/10 20:59:52;;;;;;;7.88;7.18;;;;;23.90;100844.00;;;;10163957;28;20287;-75
2023/06/10 21:04:57;;;;;;;8.40;7.55;;;;;23.80;100848.00;;;;10153254;28;20238;-75
2023/06/10 21:09:59;;;;;;;7.80;6.95;;;;;23.70;100858.00;;;;10155821;28;20217;-76
2023/06/10 21:15:02;;;;;;;9.40;7.15;;;;;23.60;100851.00;;;;10154795;28;20209;-75
2023/06/10 21:20:05;;;;;;;8.85;7.40;;;;;23.50;100857.00;;;;10137924;28;20247;-76
2023/06/10 21:25:07;;;;;;;8.05;7.30;;;;;23.40;100859.00;;;;10156166;28;20253;-77
2023/06/10 21:30:10;;;;;;;8.70;7.30;;;;;23.20;100868.00;;;;10157151;28;20201;-76
2023/06/10 21:35:12;;;;;;;9.80;8.27;;;;;23.10;100864.00;;;;10155306;28;20670;-75
2023/06/10 21:40:15;;;;;;;8.95;7.72;;;;;23.00;100874.00;;;;10154436;28;21817;-73
2023/06/10 21:45:17;;;;;;;8.88;7.78;;;;;22.90;100872.00;;;;10163184;28;20220;-78
2023/06/10 21:50:19;;;;;;;9.60;8.77;;;;;22.80;100882.00;;;;10156336;28;20261;-75
2023/06/10 21:55:21;;;;;;;9.40;7.88;;;;;22.60;100876.00;;;;10158226;28;20243;-77
2023/06/10 22:00:24;;;;;;;8.57;7.78;;;;;22.50;100882.00;;;;10156833;28;20680;-75
2023/06/10 22:05:26;;;;;;;9.23;8.27;;;;;22.40;100878.00;;;;10154441;28;20240;-74
2023/06/10 22:10:28;;;;;;;11.07;8.35;;;;;22.40;100878.00;;;;10145961;28;20213;-76
2023/06/10 22:15:30;;;;;;;9.80;7.75;;;;;22.30;100877.00;;;;10164597;28;20220;-76
2023/06/10 22:20:33;;;;;;;11.18;8.02;;;;;22.30;100874.00;;;;10167802;28;20224;-76
2023/06/10 22:25:35;;;;;;;11.30;8.85;;;;;22.20;100869.00;;;;10169009;28;20237;-74
2023/06/10 22:30:37;;;;;;;11.40;8.98;;;;;22.00;100869.00;;;;10164267;28;20757;-77
2023/06/10 22:35:39;;;;;;;9.65;7.97;;;;;21.80;100865.00;;;;10158847;28;20217;-76
2023/06/10 22:40:41;;;;;;;9.98;8.32;;;;;21.70;100870.00;;;;10160179;28;21396;-79
2023/06/10 22:45:43;;;;;;;9.25;8.35;;;;;21.60;100862.00;;;;10156867;28;20229;-78
2023/06/10 22:50:45;;;;;;;9.93;8.93;;;;;21.50;100864.00;;;;10154868;28;20217;-75
2023/06/10 22:55:47;;;;;;;12.82;8.10;;;;;21.50;100870.00;;;;10169806;28;20320;-75
2023/06/10 23:00:49;;;;;;;10.65;8.38;;;;;21.40;100862.00;;;;10167852;28;21874;-74
2023/06/10 23:05:51;;;;;;;9.73;8.40;;;;;21.40;100870.00;;;;10168273;28;20914;-74
2023/06/10 23:10:53;;;;;;;11.50;8.50;;;;;21.30;100868.00;;;;10168615;28;20220;-73
2023/06/10 23:15:55;;;;;;;9.75;8.77;;;;;21.20;100867.00;;;;10168390;28;20220;-74
2023/06/10 23:20:58;;;;;;;10.07;8.77;;;;;21.10;100860.00;;;;10163190;28;20306;-74
2023/06/10 23:26:01;;;;;;;10.13;8.57;;;;;21.00;100877.00;;;;10167914;28;20259;-73
2023/06/10 23:31:03;;;;;;;12.05;8.75;;;;;20.90;100871.00;;;;10153479;28;20209;-73
2023/06/10 23:36:05;;;;;;;10.38;9.23;;;;;20.70;100878.00;;;;10153690;28;20219;-73
2023/06/10 23:41:08;;;;;;;10.32;9.27;;;;;20.50;100871.00;;;;10167029;28;20206;-74
2023/06/10 23:46:09;;;;;;;11.00;8.98;;;;;20.40;100865.00;;;;10168094;28;20970;-74
2023/06/10 23:51:12;;;;;;;10.77;9.60;;;;;20.20;100871.00;;;;10171149;28;21198;-74
2023/06/10 23:56:14;;;;;;;9.88;8.93;;;;;20.00;100871.00;;;;10161450;28;20213;-73
